Hopewell Township, New Jersey
Current Conditions -  °F | °C
As of 10:53 PM on Sunday 25 Jan 2015 (Local Time) from KTTN Reporting Station
Overcast Overcast  
Wind Chill: 24°   Ceiling: 3800
Heat Index: 32°   Visibility: 10mi
Dew Point: 16°   Wind: 9mph
Humidity: 52%   Direction: 30°NNE
Pressure: 29.96"   Gusts: NA
Location:  40.3975°N, 74.7746°W
Report Text: KTTN 260353Z AUTO 03008KT 10SM BKN038 OVC050 00/M09 A2996 RMK AO2 SLP139 T00001089
Loading
Personal Weather Stations






























Interactive Weather Map New forecast layout! Learn more

10-Day Weather Forecast

Advertisements
Track Severe Weather on mobile